Time;durP1;ratioP1;P1;durP2;ratioP2;P2;SDS_P1;SDS_P2;PMS_P1;PMS_P2;Temp;Humidity;BMP_temperature;BMP_pressure;BME280_temperature;BME280_humidity;BME280_pressure;Samples;Min_cycle;Max_cycle;Signal;HPM_P1;HPM_P2
2023/09/07 00:00:50;;;;;;;;;;;23.60;71.10;;;;;;10528678;28;19987;-42
2023/09/07 00:05:51;;;;;;;;;;;23.60;71.10;;;;;;10527918;28;20470;-43
2023/09/07 00:10:53;;;;;;;;;;;23.60;70.90;;;;;;10518624;28;19955;-43
2023/09/07 00:15:57;;;;;;;;;;;23.50;70.80;;;;;;10513482;28;19978;-41
2023/09/07 00:20:59;;;;;;;;;;;23.50;70.80;;;;;;10524621;28;19939;-41
2023/09/07 00:26:01;;;;;;;;;;;23.60;70.80;;;;;;10528069;28;20470;-42
2023/09/07 00:31:03;;;;;;;;;;;23.50;70.60;;;;;;10513287;28;19940;-42
2023/09/07 00:36:05;;;;;;;;;;;23.60;70.70;;;;;;10530348;28;20288;-42
2023/09/07 00:41:07;;;;;;;;;;;23.60;70.60;;;;;;10526021;28;20345;-46
2023/09/07 00:46:09;;;;;;;;;;;23.60;70.60;;;;;;10529528;28;19940;-41
2023/09/07 00:51:10;;;;;;;;;;;23.50;70.40;;;;;;10510957;28;20043;-44
2023/09/07 00:56:13;;;;;;;;;;;23.50;70.50;;;;;;10531899;28;19939;-43
2023/09/07 01:01:15;;;;;;;;;;;23.50;70.40;;;;;;10520501;28;19933;-41
2023/09/07 01:06:26;;;;;;;;;;;23.50;70.40;;;;;;10520680;28;19936;-42
2023/09/07 01:11:35;;;;;;;;;;;23.50;70.30;;;;;;10525551;28;19932;-43
2023/09/07 01:16:40;;;;;;;;;;;23.50;70.40;;;;;;10529131;28;20406;-43
2023/09/07 01:21:42;;;;;;;;;;;23.60;70.30;;;;;;10519513;28;19933;-41
2023/09/07 01:26:49;;;;;;;;;;;23.50;70.20;;;;;;10518116;28;20303;-43
2023/09/07 01:31:50;;;;;;;;;;;23.50;70.20;;;;;;10517893;28;20023;-45
2023/09/07 01:36:52;;;;;;;;;;;23.50;70.10;;;;;;10519431;28;19936;-42
2023/09/07 01:41:54;;;;;;;;;;;23.50;70.00;;;;;;10514075;28;19932;-45
2023/09/07 01:46:56;;;;;;;;;;;23.50;70.00;;;;;;10508113;28;19939;-47
2023/09/07 01:51:57;;;;;;;;;;;23.50;70.00;;;;;;10514487;28;20412;-44
2023/09/07 01:56:59;;;;;;;;;;;23.50;69.90;;;;;;10534111;28;19933;-45
2023/09/07 02:02:01;;;;;;;;;;;23.50;69.90;;;;;;10526087;28;19941;-44
2023/09/07 02:07:04;;;;;;;;;;;23.50;69.90;;;;;;10546296;27;20339;-47
2023/09/07 02:12:05;;;;;;;;;;;23.50;69.80;;;;;;10506584;28;19940;-43
2023/09/07 02:17:07;;;;;;;;;;;23.50;69.80;;;;;;10503471;28;19940;-41
2023/09/07 02:22:09;;;;;;;;;;;23.50;69.70;;;;;;10518900;28;19939;-42
2023/09/07 02:27:11;;;;;;;;;;;23.50;69.70;;;;;;10510794;28;19939;-43
2023/09/07 02:32:13;;;;;;;;;;;23.50;70.60;;;;;;10528583;28;19940;-45
2023/09/07 02:37:16;;;;;;;;;;;23.50;69.60;;;;;;10509273;28;19932;-44
2023/09/07 02:42:17;;;;;;;;;;;23.50;69.50;;;;;;10528293;28;19939;-42
2023/09/07 02:47:19;;;;;;;;;;;23.50;69.50;;;;;;10519424;28;20316;-41
2023/09/07 02:52:20;;;;;;;;;;;23.50;69.40;;;;;;10521441;28;19932;-43
2023/09/07 02:57:22;;;;;;;;;;;23.50;69.40;;;;;;10518469;28;19941;-44
2023/09/07 03:02:24;;;;;;;;;;;23.50;69.30;;;;;;10545257;28;20021;-43
2023/09/07 03:07:26;;;;;;;;;;;23.50;69.30;;;;;;10532795;28;19956;-44
2023/09/07 03:12:28;;;;;;;;;;;23.50;69.20;;;;;;10507786;28;19939;-44
2023/09/07 03:17:29;;;;;;;;;;;23.50;69.20;;;;;;10541394;27;20393;-43
2023/09/07 03:22:31;;;;;;;;;;;23.40;69.00;;;;;;10517441;28;20291;-42
2023/09/07 03:27:33;;;;;;;;;;;23.40;69.00;;;;;;10517353;28;20290;-42
2023/09/07 03:32:35;;;;;;;;;;;23.40;69.00;;;;;;10518916;28;19933;-42
2023/09/07 03:37:39;;;;;;;;;;;23.40;69.00;;;;;;10509230;28;20338;-43
2023/09/07 03:42:42;;;;;;;;;;;23.40;69.00;;;;;;10520910;28;19932;-43
2023/09/07 03:47:44;;;;;;;;;;;23.40;69.00;;;;;;10501680;28;20395;-42
2023/09/07 03:52:46;;;;;;;;;;;23.40;69.00;;;;;;10507988;28;19932;-46
2023/09/07 03:57:47;;;;;;;;;;;23.30;69.00;;;;;;10533283;28;20387;-44
2023/09/07 04:02:49;;;;;;;;;;;23.30;69.00;;;;;;10547217;27;19939;-44
2023/09/07 04:07:51;;;;;;;;;;;23.30;69.00;;;;;;10526294;28;19932;-43
2023/09/07 04:12:53;;;;;;;;;;;23.30;68.90;;;;;;10530120;27;20376;-44
2023/09/07 04:17:54;;;;;;;;;;;23.30;68.90;;;;;;10524712;28;20467;-45
2023/09/07 04:22:56;;;;;;;;;;;23.30;68.90;;;;;;10524189;28;19932;-41
2023/09/07 04:27:58;;;;;;;;;;;23.30;68.90;;;;;;10552876;28;19932;-44
2023/09/07 04:33:00;;;;;;;;;;;23.30;69.00;;;;;;10529127;28;20020;-44
2023/09/07 04:38:02;;;;;;;;;;;23.20;68.90;;;;;;10523864;28;20000;-48
2023/09/07 04:43:03;;;;;;;;;;;23.20;68.90;;;;;;10516193;28;19940;-43
2023/09/07 04:48:05;;;;;;;;;;;23.20;68.80;;;;;;11025228;22;19932;-44
2023/09/07 04:53:07;;;;;;;;;;;23.20;68.80;;;;;;10526726;28;20382;-42
2023/09/07 04:58:09;;;;;;;;;;;23.20;68.80;;;;;;10527458;28;19932;-44
2023/09/07 05:03:12;;;;;;;;;;;23.20;68.90;;;;;;10532029;28;20010;-59
2023/09/07 05:08:14;;;;;;;;;;;23.20;69.00;;;;;;10526578;28;20563;-43
2023/09/07 05:13:15;;;;;;;;;;;23.20;69.00;;;;;;10532490;28;20446;-42
2023/09/07 05:18:17;;;;;;;;;;;23.20;69.00;;;;;;10531184;28;19932;-43
2023/09/07 05:23:20;;;;;;;;;;;23.20;69.00;;;;;;10531245;28;20027;-43
2023/09/07 05:28:22;;;;;;;;;;;23.20;69.20;;;;;;10533080;28;19933;-43
2023/09/07 05:33:24;;;;;;;;;;;23.20;69.20;;;;;;10525209;28;20015;-44
2023/09/07 05:38:26;;;;;;;;;;;23.20;69.30;;;;;;10525069;28;20388;-47
2023/09/07 05:43:28;;;;;;;;;;;23.20;69.20;;;;;;10509740;28;19966;-43
2023/09/07 05:48:30;;;;;;;;;;;23.20;69.30;;;;;;10510050;28;19932;-42
2023/09/07 05:53:32;;;;;;;;;;;23.20;69.30;;;;;;10521038;28;20268;-44
2023/09/07 05:58:34;;;;;;;;;;;23.20;69.40;;;;;;10517017;28;19941;-47
2023/09/07 06:03:36;;;;;;;;;;;23.10;69.60;;;;;;10522780;28;19933;-42
2023/09/07 06:08:38;;;;;;;;;;;23.20;69.60;;;;;;10504386;28;20030;-42
2023/09/07 06:13:41;;;;;;;;;;;23.20;68.20;;;;;;10519105;28;20043;-45
2023/09/07 06:18:43;;;;;;;;;;;23.10;67.80;;;;;;10513417;28;19932;-42
2023/09/07 06:23:45;;;;;;;;;;;23.00;67.10;;;;;;10523931;28;19939;-45
2023/09/07 06:28:46;;;;;;;;;;;23.00;67.30;;;;;;10526124;28;19933;-43
2023/09/07 06:33:48;;;;;;;;;;;22.90;67.50;;;;;;10524897;28;19933;-43
2023/09/07 06:38:50;;;;;;;;;;;22.90;67.50;;;;;;10523125;28;19932;-43
2023/09/07 06:43:51;;;;;;;;;;;22.90;67.50;;;;;;10521550;28;19933;-44
2023/09/07 06:48:54;;;;;;;;;;;22.90;67.50;;;;;;10520582;28;20112;-43
2023/09/07 06:53:56;;;;;;;;;;;22.90;68.00;;;;;;10514150;28;19986;-48
2023/09/07 06:58:58;;;;;;;;;;;22.90;67.90;;;;;;10530699;28;19939;-45
2023/09/07 07:04:00;;;;;;;;;;;22.90;68.00;;;;;;10515794;28;19932;-44
2023/09/07 07:09:03;;;;;;;;;;;22.90;68.00;;;;;;10519805;28;20037;-48
2023/09/07 07:14:04;;;;;;;;;;;22.90;68.00;;;;;;10495448;28;19940;-47
2023/09/07 07:19:06;;;;;;;;;;;22.90;68.00;;;;;;10512569;28;19933;-47
2023/09/07 07:24:08;;;;;;;;;;;23.00;68.10;;;;;;10504495;28;20394;-44
2023/09/07 07:29:11;;;;;;;;;;;23.00;68.10;;;;;;10515871;28;19933;-45
2023/09/07 07:34:13;;;;;;;;;;;23.00;68.10;;;;;;10477134;28;19933;-46
2023/09/07 07:39:15;;;;;;;;;;;23.00;68.10;;;;;;10506927;28;19939;-47
2023/09/07 07:44:17;;;;;;;;;;;23.00;68.10;;;;;;10498685;28;20383;-44
2023/09/07 07:49:19;;;;;;;;;;;23.00;68.10;;;;;;10529725;28;19932;-45
2023/09/07 07:54:22;;;;;;;;;;;23.00;68.10;;;;;;10519017;28;19932;-44
2023/09/07 07:59:25;;;;;;;;;;;23.00;68.20;;;;;;10521873;28;19933;-45
2023/09/07 08:04:27;;;;;;;;;;;23.00;68.10;;;;;;10529872;28;19932;-42
2023/09/07 08:09:29;;;;;;;;;;;23.10;68.20;;;;;;10524163;28;20074;-44
2023/09/07 08:14:31;;;;;;;;;;;23.10;68.20;;;;;;10516352;28;19940;-45
2023/09/07 08:19:33;;;;;;;;;;;23.10;68.20;;;;;;10534046;28;19932;-42
2023/09/07 08:24:35;;;;;;;;;;;23.10;68.10;;;;;;10524748;28;19933;-43
2023/09/07 08:29:36;;;;;;;;;;;23.10;68.10;;;;;;10538056;28;19956;-43
2023/09/07 08:34:40;;;;;;;;;;;23.10;68.10;;;;;;10537458;28;20231;-43
2023/09/07 08:39:42;;;;;;;;;;;23.20;68.20;;;;;;10554166;28;20409;-47
2023/09/07 08:44:46;;;;;;;;;;;23.20;68.10;;;;;;10508327;28;20123;-44
2023/09/07 08:49:48;;;;;;;;;;;23.20;68.20;;;;;;10533411;28;20375;-43
2023/09/07 08:54:51;;;;;;;;;;;23.20;68.20;;;;;;10528847;28;19936;-44
2023/09/07 08:59:53;;;;;;;;;;;23.20;68.20;;;;;;10529541;28;19951;-44
2023/09/07 09:04:56;;;;;;;;;;;23.20;68.20;;;;;;10508630;28;20023;-48
2023/09/07 09:10:07;;;;;;;;;;;23.20;68.20;;;;;;10514034;28;20421;-43
2023/09/07 09:15:10;;;;;;;;;;;23.20;68.20;;;;;;10524847;28;19939;-46
2023/09/07 09:20:22;;;;;;;;;;;23.20;68.20;;;;;;10487289;28;20455;-44
2023/09/07 09:25:26;;;;;;;;;;;23.20;68.20;;;;;;10528966;28;19932;-42
2023/09/07 09:30:28;;;;;;;;;;;23.30;68.20;;;;;;10535121;28;19963;-44
2023/09/07 09:35:30;;;;;;;;;;;23.30;68.00;;;;;;10535865;28;20472;-45
2023/09/07 09:40:34;;;;;;;;;;;23.40;67.80;;;;;;10536616;28;19933;-43
2023/09/07 09:45:36;;;;;;;;;;;23.50;67.70;;;;;;10533642;28;19939;-42
2023/09/07 09:50:40;;;;;;;;;;;23.60;67.40;;;;;;10524348;28;20034;-43
2023/09/07 09:55:42;;;;;;;;;;;23.70;67.20;;;;;;10495693;28;19932;-42
2023/09/07 10:00:44;;;;;;;;;;;23.90;67.00;;;;;;10531781;28;20182;-42
2023/09/07 10:05:46;;;;;;;;;;;24.00;66.70;;;;;;10520410;28;20315;-42
2023/09/07 10:10:49;;;;;;;;;;;24.10;66.60;;;;;;10525373;28;19932;-42
2023/09/07 10:15:59;;;;;;;;;;;24.20;66.40;;;;;;10519604;28;19939;-43
2023/09/07 10:21:02;;;;;;;;;;;24.20;66.20;;;;;;10508867;28;20022;-43
2023/09/07 10:26:05;;;;;;;;;;;24.30;66.10;;;;;;10498737;28;19968;-42
2023/09/07 10:31:15;;;;;;;;;;;24.30;66.10;;;;;;10532513;28;20031;-46
2023/09/07 10:36:24;;;;;;;;;;;24.40;66.00;;;;;;10518882;28;20082;-43
2023/09/07 10:41:26;;;;;;;;;;;24.40;65.90;;;;;;10533373;28;19932;-45
2023/09/07 10:46:27;;;;;;;;;;;24.40;65.80;;;;;;10532565;28;20391;-43
2023/09/07 10:51:31;;;;;;;;;;;24.40;65.80;;;;;;10527325;28;24449;-47
2023/09/07 10:56:33;;;;;;;;;;;24.50;65.90;;;;;;10531308;28;19932;-42
2023/09/07 11:01:35;;;;;;;;;;;24.50;65.90;;;;;;10513081;28;19932;-43
2023/09/07 11:06:37;;;;;;;;;;;24.50;65.90;;;;;;10517143;28;19933;-45
2023/09/07 11:11:39;;;;;;;;;;;24.50;65.90;;;;;;10490475;28;19932;-48
2023/09/07 11:16:43;;;;;;;;;;;24.50;66.00;;;;;;10515608;28;19940;-44
2023/09/07 11:21:44;;;;;;;;;;;24.50;66.10;;;;;;10532072;28;19932;-46
2023/09/07 11:26:47;;;;;;;;;;;24.40;66.00;;;;;;10507456;28;19963;-44
2023/09/07 11:31:48;;;;;;;;;;;24.50;66.20;;;;;;10517981;28;19933;-43
2023/09/07 11:36:50;;;;;;;;;;;24.40;66.20;;;;;;10501512;28;19939;-43
2023/09/07 11:41:52;;;;;;;;;;;24.40;66.30;;;;;;10506840;28;20567;-45
2023/09/07 11:46:54;;;;;;;;;;;24.40;66.40;;;;;;10524064;28;20043;-50
2023/09/07 11:51:56;;;;;;;;;;;24.40;66.60;;;;;;10510416;28;19933;-42
2023/09/07 11:56:58;;;;;;;;;;;24.30;66.70;;;;;;10529949;28;19932;-44
2023/09/07 12:02:00;;;;;;;;;;;24.30;66.70;;;;;;10524084;28;20119;-47
2023/09/07 12:07:02;;;;;;;;;;;24.40;66.80;;;;;;10537575;28;20503;-43
2023/09/07 12:12:04;;;;;;;;;;;24.30;66.90;;;;;;10502978;28;19955;-46
2023/09/07 12:17:06;;;;;;;;;;;24.30;67.00;;;;;;10538392;28;19933;-45
2023/09/07 12:22:08;;;;;;;;;;;24.30;67.10;;;;;;10519917;28;19936;-44
2023/09/07 12:27:10;;;;;;;;;;;24.30;67.10;;;;;;10538011;28;19932;-46
2023/09/07 12:32:12;;;;;;;;;;;24.30;67.20;;;;;;10511484;28;20422;-44
2023/09/07 12:37:14;;;;;;;;;;;24.30;67.30;;;;;;10501148;28;20097;-45
2023/09/07 12:42:16;;;;;;;;;;;24.20;67.20;;;;;;10503877;28;19939;-45
2023/09/07 12:47:17;;;;;;;;;;;24.20;67.30;;;;;;10519616;28;19990;-42
2023/09/07 12:52:19;;;;;;;;;;;24.30;67.50;;;;;;10526209;28;20388;-46
2023/09/07 12:57:21;;;;;;;;;;;24.20;67.40;;;;;;10524875;28;19939;-42
2023/09/07 13:02:22;;;;;;;;;;;24.20;67.50;;;;;;10531130;28;20215;-43
2023/09/07 13:07:25;;;;;;;;;;;24.20;68.60;;;;;;10517637;28;19939;-41
2023/09/07 13:12:26;;;;;;;;;;;24.20;67.70;;;;;;10533636;28;20014;-42
2023/09/07 13:17:28;;;;;;;;;;;24.20;67.70;;;;;;10533143;28;20391;-44
2023/09/07 13:22:30;;;;;;;;;;;24.20;67.80;;;;;;10536598;28;19979;-44
2023/09/07 13:27:31;;;;;;;;;;;24.20;67.80;;;;;;10536778;28;20307;-57
2023/09/07 13:32:33;;;;;;;;;;;24.20;67.80;;;;;;10532705;28;19939;-47
2023/09/07 13:37:35;;;;;;;;;;;24.20;67.90;;;;;;10525598;28;19932;-42
2023/09/07 13:42:38;;;;;;;;;;;24.20;68.00;;;;;;10512777;28;20684;-41
2023/09/07 13:47:40;;;;;;;;;;;24.20;68.00;;;;;;10511939;28;20296;-42
2023/09/07 13:52:42;;;;;;;;;;;24.20;68.00;;;;;;10495003;28;19932;-43
2023/09/07 13:57:44;;;;;;;;;;;24.20;68.00;;;;;;10516397;28;20023;-42
2023/09/07 14:02:46;;;;;;;;;;;24.20;68.10;;;;;;10516340;28;19933;-46
2023/09/07 14:07:47;;;;;;;;;;;24.20;68.20;;;;;;10516367;28;19983;-41
2023/09/07 14:12:49;;;;;;;;;;;24.20;68.20;;;;;;10491056;28;19938;-42
2023/09/07 14:17:50;;;;;;;;;;;24.20;68.20;;;;;;10484213;28;19933;-48
2023/09/07 14:22:53;;;;;;;;;;;24.10;68.20;;;;;;10498750;28;20259;-43
2023/09/07 14:27:55;;;;;;;;;;;24.10;68.40;;;;;;10512815;28;19955;-44
2023/09/07 14:32:57;;;;;;;;;;;24.20;68.40;;;;;;10493620;28;19932;-46
2023/09/07 14:37:58;;;;;;;;;;;24.10;68.40;;;;;;10501860;28;19963;-42
2023/09/07 14:43:00;;;;;;;;;;;24.10;68.50;;;;;;10515419;28;19932;-44
2023/09/07 14:48:02;;;;;;;;;;;24.10;68.50;;;;;;10502670;28;19967;-46
2023/09/07 14:53:05;;;;;;;;;;;24.10;68.60;;;;;;10497400;28;19932;-42
2023/09/07 14:58:09;;;;;;;;;;;24.10;68.60;;;;;;10509605;28;20414;-46
2023/09/07 15:03:11;;;;;;;;;;;24.20;68.60;;;;;;10496292;28;20482;-43
2023/09/07 15:08:14;;;;;;;;;;;24.10;68.60;;;;;;10501332;28;20332;-46
2023/09/07 15:13:16;;;;;;;;;;;24.10;68.70;;;;;;10518955;28;20451;-43
2023/09/07 15:18:17;;;;;;;;;;;24.10;68.80;;;;;;10517380;28;19932;-43
2023/09/07 15:23:19;;;;;;;;;;;24.10;68.80;;;;;;10496807;28;20466;-42
2023/09/07 15:28:21;;;;;;;;;;;24.10;68.90;;;;;;10510483;28;20366;-42
2023/09/07 15:33:23;;;;;;;;;;;24.20;68.90;;;;;;10508754;28;19932;-45
2023/09/07 15:38:26;;;;;;;;;;;24.20;69.10;;;;;;10488024;28;19933;-45
2023/09/07 15:43:28;;;;;;;;;;;24.20;69.50;;;;;;10521440;28;20022;-46
2023/09/07 15:48:31;;;;;;;;;;;24.20;69.30;;;;;;10506866;28;20092;-44
2023/09/07 15:53:34;;;;;;;;;;;24.20;69.30;;;;;;10517333;28;20122;-44
2023/09/07 15:58:35;;;;;;;;;;;24.20;69.70;;;;;;10505437;28;20362;-43
2023/09/07 16:03:37;;;;;;;;;;;24.30;70.40;;;;;;10504539;28;19932;-42
2023/09/07 16:08:39;;;;;;;;;;;24.40;71.60;;;;;;10504655;28;19932;-43
2023/09/07 16:13:41;;;;;;;;;;;24.60;71.90;;;;;;10451508;28;88503;-45
2023/09/07 16:18:42;;;;;;;;;;;24.80;71.60;;;;;;10341049;28;90166;-42
2023/09/07 16:23:45;;;;;;;;;;;25.00;70.90;;;;;;10338494;28;90060;-44
2023/09/07 16:28:48;;;;;;;;;;;25.00;70.60;;;;;;10349697;28;90238;-44
2023/09/07 16:33:50;;;;;;;;;;;25.00;70.50;;;;;;10353077;28;89701;-45
2023/09/07 16:38:52;;;;;;;;;;;25.00;70.20;;;;;;10349216;28;89147;-47
2023/09/07 16:43:54;;;;;;;;;;;25.00;70.30;;;;;;10353153;28;90282;-45
2023/09/07 16:48:56;;;;;;;;;;;25.00;70.20;;;;;;10315273;28;90076;-43
2023/09/07 16:53:58;;;;;;;;;;;25.00;70.30;;;;;;10355752;28;90859;-44
2023/09/07 16:59:00;;;;;;;;;;;24.90;70.10;;;;;;10361844;28;89136;-48
2023/09/07 17:04:05;;;;;;;;;;;24.90;70.30;;;;;;10349901;28;89313;-44
2023/09/07 17:09:07;;;;;;;;;;;24.90;70.30;;;;;;10339317;28;89215;-43
2023/09/07 17:14:09;;;;;;;;;;;24.80;70.30;;;;;;10356854;28;89573;-46
2023/09/07 17:19:11;;;;;;;;;;;24.80;70.40;;;;;;10361934;28;91252;-43
2023/09/07 17:24:13;;;;;;;;;;;24.80;70.60;;;;;;10356426;28;90006;-42
2023/09/07 17:29:15;;;;;;;;;;;24.80;70.70;;;;;;10352532;28;90051;-45
2023/09/07 17:34:17;;;;;;;;;;;24.80;70.80;;;;;;10343229;28;89256;-44
2023/09/07 17:39:19;;;;;;;;;;;24.70;70.80;;;;;;10357798;28;90093;-42
2023/09/07 17:44:20;;;;;;;;;;;24.70;70.80;;;;;;10356123;28;89755;-44
2023/09/07 17:49:22;;;;;;;;;;;24.70;70.90;;;;;;10347412;28;90090;-45
2023/09/07 17:54:24;;;;;;;;;;;24.70;70.90;;;;;;10338652;28;89835;-44
2023/09/07 17:59:26;;;;;;;;;;;24.70;70.90;;;;;;10355792;28;90429;-44
2023/09/07 18:04:27;;;;;;;;;;;24.60;70.80;;;;;;10355488;28;89692;-44
2023/09/07 18:09:29;;;;;;;;;;;24.60;70.80;;;;;;10354801;28;88757;-44
2023/09/07 18:14:31;;;;;;;;;;;24.60;70.60;;;;;;10358679;28;90443;-48
2023/09/07 18:19:33;;;;;;;;;;;24.60;70.80;;;;;;10354818;28;88944;-46
2023/09/07 18:24:35;;;;;;;;;;;24.60;70.50;;;;;;10343869;28;90238;-43
2023/09/07 18:29:37;;;;;;;;;;;24.60;71.10;;;;;;10339026;28;91380;-48
2023/09/07 18:34:38;;;;;;;;;;;24.60;71.20;;;;;;10355092;28;90730;-45
2023/09/07 18:39:41;;;;;;;;;;;24.60;71.20;;;;;;10354618;28;89179;-54
2023/09/07 18:44:43;;;;;;;;;;;24.60;71.60;;;;;;10337479;28;90075;-42
2023/09/07 18:49:48;;;;;;;;;;;24.60;71.70;;;;;;10353433;28;89305;-44
2023/09/07 18:54:50;;;;;;;;;;;24.60;71.80;;;;;;10359312;28;89486;-44
2023/09/07 18:59:52;;;;;;;;;;;24.60;71.70;;;;;;10359101;28;89439;-44
2023/09/07 19:04:54;;;;;;;;;;;24.60;71.60;;;;;;10363287;28;89752;-43
2023/09/07 19:09:56;;;;;;;;;;;24.60;71.50;;;;;;10359989;28;90124;-44
2023/09/07 19:14:57;;;;;;;;;;;24.60;71.60;;;;;;10355635;28;89411;-45
2023/09/07 19:19:59;;;;;;;;;;;24.50;71.40;;;;;;10354785;28;90048;-45
2023/09/07 19:25:01;;;;;;;;;;;24.50;71.40;;;;;;10355860;28;89746;-46
2023/09/07 19:30:04;;;;;;;;;;;24.60;71.10;;;;;;10349151;28;89110;-43
2023/09/07 19:35:06;;;;;;;;;;;24.50;71.00;;;;;;10358374;28;90582;-46
2023/09/07 19:40:08;;;;;;;;;;;24.50;71.00;;;;;;10352713;28;89927;-47
2023/09/07 19:45:11;;;;;;;;;;;24.60;70.90;;;;;;10335135;28;89834;-43
2023/09/07 19:50:13;;;;;;;;;;;24.50;70.90;;;;;;10306879;28;90961;-44
2023/09/07 19:55:15;;;;;;;;;;;24.50;70.70;;;;;;10349605;28;89065;-45
2023/09/07 20:00:17;;;;;;;;;;;24.50;70.60;;;;;;10360809;28;89274;-43
2023/09/07 20:05:18;;;;;;;;;;;24.50;70.50;;;;;;10357952;28;90386;-43
2023/09/07 20:10:23;;;;;;;;;;;24.50;70.40;;;;;;10351435;28;90813;-44
2023/09/07 20:15:25;;;;;;;;;;;24.50;70.30;;;;;;10373105;28;89661;-44
2023/09/07 20:20:27;;;;;;;;;;;24.50;70.10;;;;;;10362813;28;90212;-43
2023/09/07 20:25:29;;;;;;;;;;;24.50;70.00;;;;;;10352896;28;90037;-43
2023/09/07 20:30:31;;;;;;;;;;;24.50;70.00;;;;;;10365879;28;90022;-45
2023/09/07 20:35:33;;;;;;;;;;;24.50;69.90;;;;;;10330277;28;90015;-42
2023/09/07 20:40:35;;;;;;;;;;;24.50;69.90;;;;;;10344349;28;90483;-44
2023/09/07 20:45:38;;;;;;;;;;;24.50;69.70;;;;;;10358172;28;90910;-43
2023/09/07 20:50:40;;;;;;;;;;;24.50;69.70;;;;;;10354847;28;90144;-46
2023/09/07 20:55:43;;;;;;;;;;;24.50;69.50;;;;;;10343873;28;88844;-43
2023/09/07 21:00:45;;;;;;;;;;;24.50;69.40;;;;;;10356897;28;89379;-46
2023/09/07 21:05:48;;;;;;;;;;;24.50;69.30;;;;;;10357817;28;90764;-43
2023/09/07 21:10:50;;;;;;;;;;;24.40;69.20;;;;;;10355972;28;89999;-44
2023/09/07 21:15:51;;;;;;;;;;;24.40;69.20;;;;;;10353858;28;90111;-46
2023/09/07 21:20:57;;;;;;;;;;;24.40;69.00;;;;;;10338371;28;90542;-42
2023/09/07 21:25:58;;;;;;;;;;;24.40;68.80;;;;;;10351465;28;89312;-46
2023/09/07 21:31:00;;;;;;;;;;;24.40;68.70;;;;;;10344423;28;89052;-44
2023/09/07 21:36:03;;;;;;;;;;;24.40;68.60;;;;;;10327737;28;90145;-45
2023/09/07 21:41:05;;;;;;;;;;;24.40;68.50;;;;;;10351874;28;90461;-44
2023/09/07 21:46:06;;;;;;;;;;;24.40;68.40;;;;;;10332730;28;89334;-43
2023/09/07 21:51:08;;;;;;;;;;;24.40;68.30;;;;;;10357912;28;90453;-46
2023/09/07 21:56:11;;;;;;;;;;;24.40;68.20;;;;;;10347845;28;90385;-46
2023/09/07 22:01:13;;;;;;;;;;;24.40;68.10;;;;;;10375851;28;90071;-44
2023/09/07 22:06:15;;;;;;;;;;;24.40;68.00;;;;;;10362817;28;89906;-48
2023/09/07 22:11:16;;;;;;;;;;;24.30;67.90;;;;;;10336232;28;89127;-42
2023/09/07 22:16:18;;;;;;;;;;;24.40;67.80;;;;;;10360213;28;89658;-42
2023/09/07 22:21:21;;;;;;;;;;;24.40;67.80;;;;;;10358601;28;90023;-42
2023/09/07 22:26:23;;;;;;;;;;;24.40;67.60;;;;;;10349999;28;90019;-43
2023/09/07 22:31:25;;;;;;;;;;;24.40;67.50;;;;;;10358090;28;89279;-43
2023/09/07 22:36:27;;;;;;;;;;;24.40;67.40;;;;;;10353030;28;89810;-44
2023/09/07 22:41:29;;;;;;;;;;;24.40;67.20;;;;;;10357502;28;89851;-45
2023/09/07 22:46:32;;;;;;;;;;;24.40;67.10;;;;;;10353423;28;90792;-53
2023/09/07 22:51:34;;;;;;;;;;;24.40;67.10;;;;;;10341632;28;88842;-42
2023/09/07 22:56:37;;;;;;;;;;;24.30;66.90;;;;;;10356426;28;89217;-44
2023/09/07 23:01:40;;;;;;;;;;;24.30;66.80;;;;;;10346189;28;90369;-50
2023/09/07 23:06:42;;;;;;;;;;;24.30;66.70;;;;;;10325210;28;90392;-44
2023/09/07 23:11:44;;;;;;;;;;;24.30;66.60;;;;;;10359206;28;89375;-46
2023/09/07 23:16:46;;;;;;;;;;;24.30;66.60;;;;;;10328762;28;89448;-47
2023/09/07 23:21:47;;;;;;;;;;;24.30;66.50;;;;;;10333244;28;89142;-44
2023/09/07 23:26:50;;;;;;;;;;;24.30;66.30;;;;;;10357578;28;89216;-44
2023/09/07 23:31:52;;;;;;;;;;;24.30;66.30;;;;;;10358546;28;89714;-45
2023/09/07 23:36:54;;;;;;;;;;;24.30;66.20;;;;;;10365713;28;89975;-44
2023/09/07 23:41:56;;;;;;;;;;;24.30;66.20;;;;;;10365767;28;89244;-45
2023/09/07 23:46:58;;;;;;;;;;;24.30;66.00;;;;;;10365500;28;89793;-43
2023/09/07 23:51:59;;;;;;;;;;;24.30;66.00;;;;;;10359140;28;89028;-63
2023/09/07 23:57:01;;;;;;;;;;;24.30;66.00;;;;;;10356418;28;88478;-48
